Douglas, WY (82633)

3:31 PM MDT on August 24, 2016 (GMT -0600)
Converse County | | Change Station

Elev 4928 ft 42.80 °N, 105.38 °W | Updated 38 minutes ago

Clear
Clear
74 °F
Feels Like 74 °F
N
6
Wind Variable Wind from Variable

Today
High -- | Low -- °F
--% Chance of Precip.
Yesterday
High -- | Low -- °F
Precip. -- in
Pressure 30.03 in
Visibility 10.0 miles
Clouds Clear
Dew Point 33 °F
Humidity 22%
Rainfall 0.00 in
Snow Depth Not available.
6:18 AM 7:48 PM
Waning Gibbous, 53% visible
METAR KDGW 242053Z AUTO VRB05KT 10SM CLR 23/01 A3017 RMK AO2 SLP167 T02330006 56022
Pressure 30.03 in
Visibility 10.0 miles
Clouds Clear
Dew Point 33 °F
Humidity 22%
Rainfall 0.00 in
Snow Depth Not available.
6:18 AM 7:48 PM
Waning Gibbous, 53% visible
METAR KDGW 242053Z AUTO VRB05KT 10SM CLR 23/01 A3017 RMK AO2 SLP167 T02330006 56022

10-Day Weather Forecast

Almanac

Astronomy

Aug. 24, 2016 Rise Set
Actual Time
Civil Twilight
Nautical Twilight
Astronomical Twilight
Moon
Length of Visible Light
Length of Day
Tomorrow will be .
, % of the Moon is Illuminated

Today's Extremes

State Highs State Lows

Community

WunderPhotos

Upload Photos

1,934,720 photos uploaded!

WunderBlog® & News

Nearby

Air Quality

  Air Quality AQ Index Pollutant
Not available.

Snow Depth

Station Depth Elevation

Earthquake Activity

City Distance Mag. Time & Date
Minimum magnitude displayed is 2.5.

Coastal Water Temperatures

Place Temperature

Stations

Nearby Weather Stations

Station Location Temp. Windchill Dew Point Humidity Wind Precip. Elev Updated Type
                   

Watches & Warnings

There are currently no watches in effect.